Time;durP1;ratioP1;P1;durP2;ratioP2;P2;SDS_P1;SDS_P2;PMS_P1;PMS_P2;Temp;Humidity;BMP_temperature;BMP_pressure;BME280_temperature;BME280_humidity;BME280_pressure;Samples;Min_cycle;Max_cycle;Signal;HPM_P1;HPM_P2
2023/05/27 00:00:17;;;;;;;;;;;;;;;28.82;35.19;96901.63;4995160;28;19964;-59
2023/05/27 00:02:46;;;;;;;;;;;;;;;29.49;34.39;96893.28;4996429;28;19957;-58
2023/05/27 00:05:14;;;;;;;;;;;;;;;29.24;34.65;96901.13;4994834;28;19961;-59
2023/05/27 00:07:42;;;;;;;;;;;;;;;29.05;34.84;96900.63;4989771;28;19957;-59
2023/05/27 00:10:10;;;;;;;;;;;;;;;29.64;34.17;96902.72;4993819;28;19968;-56
2023/05/27 00:12:40;;;;;;;;;;;;;;;29.54;34.10;96901.47;4995027;28;19964;-58
2023/05/27 00:15:08;;;;;;;;;;;;;;;28.97;35.06;96906.44;4998782;28;19967;-58
2023/05/27 00:17:39;;;;;;;;;;;;;;;29.43;34.33;96891.56;4998934;28;19960;-61
2023/05/27 00:20:08;;;;;;;;;;;;;;;29.52;34.25;96890.03;4992322;28;19957;-56
2023/05/27 00:22:37;;;;;;;;;;;;;;;29.32;34.80;96889.81;4999345;28;19952;-57
2023/05/27 00:25:05;;;;;;;;;;;;;;;29.68;33.77;96884.81;4995789;28;19979;-56
2023/05/27 00:27:33;;;;;;;;;;;;;;;29.67;34.04;96891.31;4999155;28;20039;-61
2023/05/27 00:30:03;;;;;;;;;;;;;;;29.72;33.93;96891.34;4997537;28;19941;-61
2023/05/27 00:32:31;;;;;;;;;;;;;;;29.72;34.02;96897.63;4994777;28;20503;-60
2023/05/27 00:34:59;;;;;;;;;;;;;;;29.41;34.05;96887.47;4995954;28;19968;-57
2023/05/27 00:37:27;;;;;;;;;;;;;;;28.83;34.92;96901.38;4998038;28;19960;-58
2023/05/27 00:39:55;;;;;;;;;;;;;;;29.80;33.83;96882.72;4995527;28;19959;-58
2023/05/27 00:42:23;;;;;;;;;;;;;;;29.67;33.59;96889.41;4994053;28;19979;-53
2023/05/27 00:44:51;;;;;;;;;;;;;;;29.41;33.76;96885.56;4997336;28;20424;-61
2023/05/27 00:47:21;;;;;;;;;;;;;;;28.99;34.45;96890.72;4994919;28;19972;-60
2023/05/27 00:49:49;;;;;;;;;;;;;;;29.13;34.29;96891.19;4996814;28;19977;-62
2023/05/27 00:52:17;;;;;;;;;;;;;;;29.30;34.23;96892.78;4994230;28;19965;-58
2023/05/27 00:54:45;;;;;;;;;;;;;;;28.97;34.80;96888.25;5002700;28;19971;-58
2023/05/27 00:57:13;;;;;;;;;;;;;;;29.36;34.33;96896.38;5000917;28;19967;-61
2023/05/27 00:59:41;;;;;;;;;;;;;;;29.11;34.28;96894.16;4996990;28;19965;-60
2023/05/27 01:02:10;;;;;;;;;;;;;;;29.01;34.82;96891.31;4992516;28;20420;-61
2023/05/27 01:04:39;;;;;;;;;;;;;;;29.37;34.02;96881.72;4997116;28;19957;-61
2023/05/27 01:07:09;;;;;;;;;;;;;;;29.49;33.82;96882.41;4979840;28;20024;-60
2023/05/27 01:09:39;;;;;;;;;;;;;;;29.06;34.77;96881.34;4996279;28;19969;-58
2023/05/27 01:12:08;;;;;;;;;;;;;;;29.32;34.30;96884.38;4994736;28;19968;-60
2023/05/27 01:14:36;;;;;;;;;;;;;;;29.65;33.54;96877.97;4993479;28;20381;-60
2023/05/27 01:17:04;;;;;;;;;;;;;;;29.43;33.84;96880.72;4998231;28;19964;-60
2023/05/27 01:19:34;;;;;;;;;;;;;;;28.78;34.85;96885.00;4999728;28;19972;-60
2023/05/27 01:22:04;;;;;;;;;;;;;;;28.80;34.45;96882.03;4995054;28;19964;-61
2023/05/27 01:24:34;;;;;;;;;;;;;;;29.47;33.87;96881.84;4996690;28;19956;-60
2023/05/27 01:27:02;;;;;;;;;;;;;;;29.53;33.87;96875.38;4995552;28;19961;-56
2023/05/27 01:29:30;;;;;;;;;;;;;;;29.69;33.50;96879.09;4989842;28;19972;-61
2023/05/27 01:32:00;;;;;;;;;;;;;;;29.22;34.30;96876.13;4994089;28;19965;-60
2023/05/27 01:34:29;;;;;;;;;;;;;;;28.93;34.88;96870.00;4997318;28;19969;-61
2023/05/27 01:37:00;;;;;;;;;;;;;;;28.86;34.92;96865.56;5002175;28;19964;-57
2023/05/27 01:39:28;;;;;;;;;;;;;;;29.43;33.87;96875.28;5003023;28;20011;-59
2023/05/27 01:41:57;;;;;;;;;;;;;;;29.02;34.57;96872.06;4995535;28;19967;-57
2023/05/27 01:44:25;;;;;;;;;;;;;;;29.13;34.39;96875.72;4996524;28;19964;-56
2023/05/27 01:46:58;;;;;;;;;;;;;;;28.75;34.94;96863.78;4990349;28;19961;-54
2023/05/27 01:49:26;;;;;;;;;;;;;;;28.99;34.52;96869.00;4999612;28;19956;-58
2023/05/27 01:51:54;;;;;;;;;;;;;;;29.01;34.43;96870.44;4996396;28;19929;-60
2023/05/27 01:54:22;;;;;;;;;;;;;;;28.69;35.18;96872.13;4995794;28;19969;-61
2023/05/27 01:56:50;;;;;;;;;;;;;;;28.54;35.09;96875.44;5003252;28;19961;-61
2023/05/27 01:59:20;;;;;;;;;;;;;;;28.92;34.75;96873.81;4998395;28;19961;-61
2023/05/27 02:01:48;;;;;;;;;;;;;;;28.62;34.76;96870.41;4994115;28;19949;-61
2023/05/27 02:04:16;;;;;;;;;;;;;;;28.68;34.62;96865.88;4995792;28;20413;-57
2023/05/27 02:06:44;;;;;;;;;;;;;;;28.63;34.73;96873.94;4999277;28;19975;-58
2023/05/27 02:09:13;;;;;;;;;;;;;;;27.90;35.45;96871.13;5004205;28;22506;-58
2023/05/27 02:11:41;;;;;;;;;;;;;;;28.06;35.51;96871.41;4998702;28;19967;-57
2023/05/27 02:14:09;;;;;;;;;;;;;;;27.87;35.35;96879.78;5000624;28;19964;-60
2023/05/27 02:16:39;;;;;;;;;;;;;;;28.80;34.72;96865.75;4999660;28;19960;-60
2023/05/27 02:19:08;;;;;;;;;;;;;;;28.42;34.98;96875.53;5008057;28;19964;-57
2023/05/27 02:21:37;;;;;;;;;;;;;;;28.20;35.20;96871.91;5003184;28;19960;-60
2023/05/27 02:24:05;;;;;;;;;;;;;;;27.76;35.81;96872.50;4997879;28;21624;-58
2023/05/27 02:26:33;;;;;;;;;;;;;;;28.57;34.76;96864.09;4997643;28;19964;-60
2023/05/27 02:29:01;;;;;;;;;;;;;;;28.24;35.06;96867.63;4995290;28;19960;-58
2023/05/27 02:31:29;;;;;;;;;;;;;;;28.16;35.48;96866.16;5002863;28;19965;-59
2023/05/27 02:33:59;;;;;;;;;;;;;;;28.53;34.80;96862.94;4997863;28;19960;-59
2023/05/27 02:36:27;;;;;;;;;;;;;;;28.53;34.38;96855.63;4996638;28;20432;-57
2023/05/27 02:38:55;;;;;;;;;;;;;;;28.50;34.65;96864.25;4999776;28;20000;-58
2023/05/27 02:41:23;;;;;;;;;;;;;;;28.60;34.57;96860.88;5000701;28;19952;-57
2023/05/27 02:43:51;;;;;;;;;;;;;;;28.39;34.89;96863.28;4999672;28;19975;-61
2023/05/27 02:46:19;;;;;;;;;;;;;;;28.77;34.25;96858.13;5003458;28;19976;-60
2023/05/27 02:48:47;;;;;;;;;;;;;;;28.69;34.26;96867.50;4998863;28;19965;-60
2023/05/27 02:51:17;;;;;;;;;;;;;;;28.08;34.97;96859.25;4996460;28;20368;-61
2023/05/27 02:53:45;;;;;;;;;;;;;;;28.68;34.43;96856.91;5002848;28;20015;-62
2023/05/27 02:56:13;;;;;;;;;;;;;;;29.02;33.55;96858.47;4993647;28;19976;-60
2023/05/27 02:58:41;;;;;;;;;;;;;;;28.52;34.48;96856.69;4997773;28;19949;-59
2023/05/27 03:01:09;;;;;;;;;;;;;;;28.56;34.24;96863.28;4998802;28;19964;-58
2023/05/27 03:03:37;;;;;;;;;;;;;;;28.54;34.30;96853.72;4999079;28;20354;-60
2023/05/27 03:06:05;;;;;;;;;;;;;;;28.63;34.28;96854.94;4999248;28;20419;-60
2023/05/27 03:08:34;;;;;;;;;;;;;;;28.14;34.69;96852.81;4997342;28;19973;-59
2023/05/27 03:11:02;;;;;;;;;;;;;;;28.45;34.25;96842.47;5003093;28;19968;-57
2023/05/27 03:13:30;;;;;;;;;;;;;;;28.31;34.54;96850.09;4998345;28;19956;-59
2023/05/27 03:15:59;;;;;;;;;;;;;;;27.86;34.99;96861.03;5007462;28;19984;-59
2023/05/27 03:18:27;;;;;;;;;;;;;;;27.77;35.17;96848.94;4998382;28;19964;-60
2023/05/27 03:20:55;;;;;;;;;;;;;;;27.85;34.96;96851.25;4992697;28;19964;-58
2023/05/27 03:23:23;;;;;;;;;;;;;;;27.99;34.90;96841.75;4993443;28;19976;-62
2023/05/27 03:25:53;;;;;;;;;;;;;;;28.31;34.34;96852.81;5001428;28;19961;-55
2023/05/27 03:28:21;;;;;;;;;;;;;;;28.14;34.70;96852.00;4990775;28;19964;-60
2023/05/27 03:30:49;;;;;;;;;;;;;;;28.06;34.69;96852.44;4997942;28;20470;-61
2023/05/27 03:33:17;;;;;;;;;;;;;;;27.86;34.97;96848.28;4994466;28;19964;-62
2023/05/27 03:35:45;;;;;;;;;;;;;;;28.48;34.29;96844.69;4995668;28;20426;-62
2023/05/27 03:38:13;;;;;;;;;;;;;;;28.46;33.98;96846.00;4992278;28;19991;-61
2023/05/27 03:40:41;;;;;;;;;;;;;;;28.58;33.86;96844.84;4994603;28;19968;-57
2023/05/27 03:43:11;;;;;;;;;;;;;;;28.61;33.65;96843.53;4996658;28;19960;-61
2023/05/27 03:45:39;;;;;;;;;;;;;;;28.77;33.39;96848.09;4997366;28;20736;-61
2023/05/27 03:48:07;;;;;;;;;;;;;;;28.71;33.59;96849.09;4994534;28;19963;-61
2023/05/27 03:50:35;;;;;;;;;;;;;;;28.60;33.54;96845.41;4999770;28;19968;-58
2023/05/27 03:53:04;;;;;;;;;;;;;;;28.83;33.45;96847.06;5000569;28;19964;-61
2023/05/27 03:55:32;;;;;;;;;;;;;;;29.14;33.12;96852.09;4991850;28;19961;-58
2023/05/27 03:58:00;;;;;;;;;;;;;;;29.42;32.59;96859.19;5000292;28;19965;-59
2023/05/27 04:00:30;;;;;;;;;;;;;;;29.42;32.49;96856.50;4995019;28;19960;-60
2023/05/27 04:02:58;;;;;;;;;;;;;;;29.19;32.69;96855.72;5001427;28;19980;-61
2023/05/27 04:05:27;;;;;;;;;;;;;;;29.64;32.43;96860.03;4997902;28;19961;-56
2023/05/27 04:07:55;;;;;;;;;;;;;;;30.16;31.29;96851.25;4999224;28;19983;-58
2023/05/27 04:10:23;;;;;;;;;;;;;;;30.48;31.39;96853.13;5002717;28;19964;-59
2023/05/27 04:12:51;;;;;;;;;;;;;;;30.43;31.45;96853.91;5006727;28;20681;-59
2023/05/27 04:15:19;;;;;;;;;;;;;;;30.24;31.58;96853.50;5008919;28;19953;-62
2023/05/27 04:17:48;;;;;;;;;;;;;;;30.23;30.90;96853.78;5005485;28;20423;-60
2023/05/27 04:20:17;;;;;;;;;;;;;;;31.12;30.41;96857.59;5003357;28;19960;-58
2023/05/27 04:22:45;;;;;;;;;;;;;;;30.88;30.12;96858.03;5005385;28;20348;-59
2023/05/27 04:25:14;;;;;;;;;;;;;;;32.16;29.19;96852.94;5001386;28;19964;-58
2023/05/27 04:27:42;;;;;;;;;;;;;;;32.60;28.60;96849.66;5008555;28;19964;-61
2023/05/27 04:30:11;;;;;;;;;;;;;;;32.46;28.60;96862.25;5006720;28;19968;-59
2023/05/27 04:32:39;;;;;;;;;;;;;;;32.98;28.27;96852.84;5000928;28;19960;-61
2023/05/27 04:35:10;;;;;;;;;;;;;;;31.98;29.10;96870.69;5001284;28;19961;-57
2023/05/27 04:37:40;;;;;;;;;;;;;;;31.72;29.60;96860.78;5003281;28;21218;-59
2023/05/27 04:40:09;;;;;;;;;;;;;;;32.43;28.78;96865.53;5002616;28;19960;-56
2023/05/27 04:42:37;;;;;;;;;;;;;;;32.15;28.80;96864.97;5005653;28;19995;-59
2023/05/27 04:45:05;;;;;;;;;;;;;;;31.66;29.35;96859.97;5003159;28;19979;-58
2023/05/27 04:47:36;;;;;;;;;;;;;;;32.11;29.35;96858.41;5003662;28;19972;-62
2023/05/27 04:50:07;;;;;;;;;;;;;;;33.30;28.16;96852.44;5002345;28;19964;-60
2023/05/27 04:52:40;;;;;;;;;;;;;;;32.90;28.26;96854.22;5004383;28;19952;-60
2023/05/27 04:55:09;;;;;;;;;;;;;;;32.84;28.32;96844.41;5008456;28;20349;-61
2023/05/27 04:57:40;;;;;;;;;;;;;;;32.71;28.22;96848.53;5004475;28;19952;-59
2023/05/27 05:00:34;;;;;;;;;;;;;;;32.54;28.45;96848.00;5002230;28;19968;-60
2023/05/27 05:03:03;;;;;;;;;;;;;;;32.73;28.72;96851.00;4989253;28;19968;-60
2023/05/27 05:05:32;;;;;;;;;;;;;;;33.30;27.68;96842.31;4994663;28;19972;-61
2023/05/27 05:08:01;;;;;;;;;;;;;;;32.67;28.14;96847.44;4992784;28;19960;-61
2023/05/27 05:10:30;;;;;;;;;;;;;;;32.54;28.53;96853.47;4994817;28;19976;-59
2023/05/27 05:12:58;;;;;;;;;;;;;;;32.63;28.78;96857.28;4998240;28;19960;-59
2023/05/27 05:15:26;;;;;;;;;;;;;;;32.56;28.98;96846.66;4992970;28;21382;-58
2023/05/27 05:17:54;;;;;;;;;;;;;;;32.66;28.71;96854.00;4991886;28;20616;-59
2023/05/27 05:20:25;;;;;;;;;;;;;;;33.19;27.98;96854.41;4989402;28;19984;-58
2023/05/27 05:22:53;;;;;;;;;;;;;;;32.03;29.35;96869.84;4987929;28;19957;-59
2023/05/27 05:25:22;;;;;;;;;;;;;;;31.11;30.46;96872.28;4994702;28;19972;-60
2023/05/27 05:27:50;;;;;;;;;;;;;;;30.85;30.88;96868.63;5000498;28;19968;-58
2023/05/27 05:30:18;;;;;;;;;;;;;;;30.67;31.22;96867.16;5003922;28;19967;-59
2023/05/27 05:32:46;;;;;;;;;;;;;;;30.03;32.35;96868.81;4993541;28;19961;-60
2023/05/27 05:35:14;;;;;;;;;;;;;;;30.64;31.42;96867.66;5005889;28;19960;-62
2023/05/27 05:37:42;;;;;;;;;;;;;;;31.27;30.97;96868.53;5007352;28;20424;-61
2023/05/27 05:40:11;;;;;;;;;;;;;;;30.92;30.30;96872.75;4999186;28;19965;-59
2023/05/27 05:42:40;;;;;;;;;;;;;;;30.31;31.34;96875.06;5003389;28;19983;-64
2023/05/27 05:45:09;;;;;;;;;;;;;;;29.28;32.45;96877.78;5001264;28;20413;-62
2023/05/27 05:47:37;;;;;;;;;;;;;;;30.07;32.40;96871.00;4994583;28;19964;-61
2023/05/27 05:50:06;;;;;;;;;;;;;;;30.91;30.67;96868.41;4994636;28;19972;-61
2023/05/27 05:52:34;;;;;;;;;;;;;;;31.63;30.64;96868.69;4996946;28;20686;-62
2023/05/27 05:55:02;;;;;;;;;;;;;;;31.69;30.10;96862.13;4992414;28;20443;-62
2023/05/27 05:57:31;;;;;;;;;;;;;;;31.34;30.57;96877.31;4998919;28;19976;-60
2023/05/27 06:00:05;;;;;;;;;;;;;;;30.46;31.02;96871.63;4994426;28;19969;-59
2023/05/27 06:02:33;;;;;;;;;;;;;;;30.19;31.75;96869.81;5003874;28;19968;-58
2023/05/27 06:05:01;;;;;;;;;;;;;;;29.37;32.27;96870.03;4991749;28;19956;-59
2023/05/27 06:07:29;;;;;;;;;;;;;;;31.06;30.83;96869.56;4991176;28;19968;-61
2023/05/27 06:09:57;;;;;;;;;;;;;;;30.26;31.04;96875.03;4998623;28;19956;-53
2023/05/27 06:12:25;;;;;;;;;;;;;;;30.85;30.56;96871.34;4994624;28;19965;-59
2023/05/27 06:14:54;;;;;;;;;;;;;;;30.98;31.01;96879.88;4990206;28;19965;-64
2023/05/27 06:17:24;;;;;;;;;;;;;;;31.15;31.15;96878.88;4982784;28;19964;-64
2023/05/27 06:19:52;;;;;;;;;;;;;;;31.67;29.78;96875.25;4974336;28;20008;-61
2023/05/27 06:22:20;;;;;;;;;;;;;;;30.11;31.52;96881.13;4976303;28;20376;-60
2023/05/27 06:24:48;;;;;;;;;;;;;;;31.59;30.16;96875.75;4986178;28;21482;-67
2023/05/27 06:27:16;;;;;;;;;;;;;;;31.13;30.68;96878.28;4983194;28;19957;-62
2023/05/27 06:29:45;;;;;;;;;;;;;;;30.40;31.60;96878.13;4985454;28;20418;-61
2023/05/27 06:32:13;;;;;;;;;;;;;;;31.39;30.67;96879.25;4987092;28;20008;-66
2023/05/27 06:34:42;;;;;;;;;;;;;;;31.37;31.09;96878.69;4982188;28;19968;-62
2023/05/27 06:37:10;;;;;;;;;;;;;;;31.81;29.98;96881.81;4994320;28;19964;-61
2023/05/27 06:39:38;;;;;;;;;;;;;;;32.07;29.86;96881.84;4994833;28;19968;-59
2023/05/27 06:42:06;;;;;;;;;;;;;;;30.69;30.82;96879.38;4994217;28;20372;-61
2023/05/27 06:44:34;;;;;;;;;;;;;;;31.33;30.51;96880.31;5004021;28;19964;-61
2023/05/27 06:47:02;;;;;;;;;;;;;;;31.39;30.47;96879.25;5004289;28;19964;-60
2023/05/27 06:49:30;;;;;;;;;;;;;;;32.03;29.91;96875.31;5000885;28;19972;-59
2023/05/27 06:52:00;;;;;;;;;;;;;;;31.76;30.24;96873.59;4998089;28;19953;-63
2023/05/27 06:54:28;;;;;;;;;;;;;;;30.98;31.47;96874.44;4995331;28;20401;-61
2023/05/27 06:56:56;;;;;;;;;;;;;;;33.14;28.94;96859.91;5000952;28;20587;-62
2023/05/27 06:59:24;;;;;;;;;;;;;;;32.35;29.16;96864.13;4995875;28;19969;-60
2023/05/27 07:01:52;;;;;;;;;;;;;;;32.37;28.68;96860.00;4998876;28;19980;-62
2023/05/27 07:04:20;;;;;;;;;;;;;;;31.84;28.68;96870.34;4998671;28;20401;-60
2023/05/27 07:06:48;;;;;;;;;;;;;;;31.67;29.20;96873.31;4998174;28;19961;-60
2023/05/27 07:09:18;;;;;;;;;;;;;;;32.42;28.08;96872.91;4999513;28;20099;-62
2023/05/27 07:11:46;;;;;;;;;;;;;;;30.17;29.67;96869.19;5004025;28;19969;-61
2023/05/27 07:14:14;;;;;;;;;;;;;;;31.33;28.83;96872.97;4996690;28;19956;-62
2023/05/27 07:16:42;;;;;;;;;;;;;;;30.18;30.27;96859.16;4995219;28;19964;-61
2023/05/27 07:19:10;;;;;;;;;;;;;;;31.08;29.43;96867.41;4997358;28;19953;-61
2023/05/27 07:21:38;;;;;;;;;;;;;;;32.19;28.25;96865.22;4997302;28;19960;-64
2023/05/27 07:24:06;;;;;;;;;;;;;;;32.50;28.09;96866.06;4996156;28;20348;-66
2023/05/27 07:26:36;;;;;;;;;;;;;;;32.22;28.21;96879.16;5000534;28;20376;-60
2023/05/27 07:29:04;;;;;;;;;;;;;;;32.34;27.89;96863.28;4989840;28;19960;-63
2023/05/27 07:31:32;;;;;;;;;;;;;;;32.50;27.89;96866.88;4998205;28;19965;-62
2023/05/27 07:34:00;;;;;;;;;;;;;;;32.35;27.81;96870.41;4992567;28;19952;-62
2023/05/27 07:36:28;;;;;;;;;;;;;;;32.09;28.02;96868.78;4998534;28;19960;-59
2023/05/27 07:38:56;;;;;;;;;;;;;;;31.97;27.89;96865.47;5000426;28;20583;-65
2023/05/27 07:41:24;;;;;;;;;;;;;;;31.31;29.17;96869.63;4999294;28;19960;-63
2023/05/27 07:43:54;;;;;;;;;;;;;;;32.32;28.03;96860.03;5002082;28;19956;-61
2023/05/27 07:46:22;;;;;;;;;;;;;;;32.67;27.94;96855.63;4997442;28;20004;-65
2023/05/27 07:48:50;;;;;;;;;;;;;;;33.20;27.14;96855.22;4991668;28;20554;-61
2023/05/27 07:51:18;;;;;;;;;;;;;;;32.10;28.18;96865.75;4999713;28;19982;-62
2023/05/27 07:53:47;;;;;;;;;;;;;;;32.92;27.93;96851.19;4998963;28;19961;-62
2023/05/27 07:56:15;;;;;;;;;;;;;;;32.36;28.40;96858.38;5000940;28;19957;-59
2023/05/27 07:58:43;;;;;;;;;;;;;;;32.91;27.75;96850.38;5000950;28;19956;-60
2023/05/27 08:01:13;;;;;;;;;;;;;;;32.93;27.99;96853.63;5001266;28;19968;-63
2023/05/27 08:03:41;;;;;;;;;;;;;;;32.35;28.42;96856.75;4998666;28;19979;-64
2023/05/27 08:06:09;;;;;;;;;;;;;;;32.34;28.08;96852.38;4998069;28;19953;-61
2023/05/27 08:08:41;;;;;;;;;;;;;;;32.54;28.34;96862.50;4996457;28;19987;-62
2023/05/27 08:11:09;;;;;;;;;;;;;;;33.46;27.94;96856.72;4995191;28;19949;-65
2023/05/27 08:13:37;;;;;;;;;;;;;;;32.52;28.64;96858.38;4994729;28;20358;-64
2023/05/27 08:16:05;;;;;;;;;;;;;;;33.22;28.24;96842.09;4997382;28;19969;-62
2023/05/27 08:18:34;;;;;;;;;;;;;;;32.28;28.37;96858.94;5001369;28;20378;-63
2023/05/27 08:21:02;;;;;;;;;;;;;;;33.12;27.63;96850.34;4997858;28;20397;-61
2023/05/27 08:23:30;;;;;;;;;;;;;;;33.91;27.52;96843.06;4999040;28;20436;-62
2023/05/27 08:25:58;;;;;;;;;;;;;;;32.61;28.03;96848.56;4996297;28;19979;-61
2023/05/27 08:28:26;;;;;;;;;;;;;;;34.48;27.28;96836.88;4993158;28;20475;-59
2023/05/27 08:30:54;;;;;;;;;;;;;;;33.06;27.30;96849.53;4992802;28;20007;-62
2023/05/27 08:33:23;;;;;;;;;;;;;;;32.99;28.44;96832.63;4995743;28;19972;-60
2023/05/27 08:35:52;;;;;;;;;;;;;;;33.53;27.68;96838.13;4998489;28;19968;-62
2023/05/27 08:38:20;;;;;;;;;;;;;;;34.67;26.60;96836.16;4990842;28;20017;-63
2023/05/27 08:40:48;;;;;;;;;;;;;;;32.26;28.99;96842.03;4996952;28;19968;-61
2023/05/27 08:43:17;;;;;;;;;;;;;;;33.85;27.41;96838.75;4993827;28;19965;-59
2023/05/27 08:45:45;;;;;;;;;;;;;;;33.31;28.01;96824.00;4994930;28;20419;-55
2023/05/27 08:48:13;;;;;;;;;;;;;;;31.99;28.79;96834.09;4990853;28;19967;-58
2023/05/27 08:50:41;;;;;;;;;;;;;;;33.00;28.04;96826.91;4993891;28;19960;-61
2023/05/27 08:53:10;;;;;;;;;;;;;;;33.67;27.52;96821.09;4996271;28;19961;-63
2023/05/27 08:55:39;;;;;;;;;;;;;;;34.84;26.69;96825.53;5001760;28;19968;-64
2023/05/27 08:58:07;;;;;;;;;;;;;;;33.16;28.36;96827.63;4999661;28;19957;-61
2023/05/27 09:00:35;;;;;;;;;;;;;;;32.80;28.40;96825.00;5004008;28;19960;-60
2023/05/27 09:03:03;;;;;;;;;;;;;;;32.54;28.84;96827.00;4997262;28;19981;-63
2023/05/27 09:05:31;;;;;;;;;;;;;;;32.54;28.32;96818.78;4991614;28;19975;-64
2023/05/27 09:07:59;;;;;;;;;;;;;;;32.84;28.16;96825.28;4999056;28;19956;-63
2023/05/27 09:10:37;;;;;;;;;;;;;;;34.44;27.22;96824.81;4992707;28;19971;-64
2023/05/27 09:13:05;;;;;;;;;;;;;;;33.51;27.59;96826.63;4989278;28;20452;-64
2023/05/27 09:15:33;;;;;;;;;;;;;;;33.25;27.75;96823.22;5002213;28;19965;-63
2023/05/27 09:18:02;;;;;;;;;;;;;;;34.50;27.34;96815.47;4991905;28;19972;-62
2023/05/27 09:20:30;;;;;;;;;;;;;;;35.82;26.22;96817.66;4994642;28;19976;-65
2023/05/27 09:22:58;;;;;;;;;;;;;;;35.87;26.11;96814.03;4995969;28;19957;-63
2023/05/27 09:25:27;;;;;;;;;;;;;;;33.01;28.00;96814.84;4994339;28;19965;-64
2023/05/27 09:27:56;;;;;;;;;;;;;;;35.54;26.52;96810.44;4990666;28;19961;-66
2023/05/27 09:30:25;;;;;;;;;;;;;;;34.88;26.39;96807.41;4990154;28;20060;-64
2023/05/27 09:33:00;;;;;;;;;;;;;;;34.20;26.69;96810.28;4997435;28;19964;-63
2023/05/27 09:35:29;;;;;;;;;;;;;;;33.63;27.74;96804.44;4999239;28;19969;-63
2023/05/27 09:38:05;;;;;;;;;;;;;;;35.77;25.78;96797.75;4990761;28;19953;-63
2023/05/27 09:40:35;;;;;;;;;;;;;;;34.28;26.49;96792.44;4987621;28;19964;-64
2023/05/27 09:43:05;;;;;;;;;;;;;;;34.46;26.44;96797.97;4993166;28;20012;-65
2023/05/27 09:45:34;;;;;;;;;;;;;;;35.41;25.70;96795.47;4994983;28;19965;-65
2023/05/27 09:48:02;;;;;;;;;;;;;;;34.13;26.83;96794.19;4992981;28;19983;-63
2023/05/27 09:50:30;;;;;;;;;;;;;;;33.98;26.75;96805.25;4988668;28;20365;-65
2023/05/27 09:52:58;;;;;;;;;;;;;;;32.89;27.69;96797.91;4996299;28;19988;-65
2023/05/27 09:55:39;;;;;;;;;;;;;;;34.34;27.22;96785.78;4989562;28;19957;-64
2023/05/27 09:58:09;;;;;;;;;;;;;;;34.68;26.02;96783.78;4989928;28;19979;-63
2023/05/27 10:00:37;;;;;;;;;;;;;;;35.98;25.77;96788.06;4996432;28;19956;-65
2023/05/27 10:03:06;;;;;;;;;;;;;;;35.27;26.20;96784.44;4999470;28;19964;-63
2023/05/27 10:05:34;;;;;;;;;;;;;;;34.73;26.85;96781.00;4989480;28;19984;-62
2023/05/27 10:08:03;;;;;;;;;;;;;;;34.68;26.52;96782.97;4992707;28;20405;-63
2023/05/27 10:10:34;;;;;;;;;;;;;;;34.08;26.73;96777.00;4989756;28;20692;-64
2023/05/27 10:13:02;;;;;;;;;;;;;;;35.54;25.52;96785.75;5001211;28;20035;-61
2023/05/27 10:15:32;;;;;;;;;;;;;;;34.35;27.15;96780.03;4997695;28;20365;-63
2023/05/27 10:18:01;;;;;;;;;;;;;;;34.21;27.43;96777.16;5000664;28;19980;-63
2023/05/27 10:20:30;;;;;;;;;;;;;;;34.75;26.64;96777.16;5002375;28;19968;-63
2023/05/27 10:22:58;;;;;;;;;;;;;;;34.47;25.90;96768.66;5000052;28;19956;-61
2023/05/27 10:25:36;;;;;;;;;;;;;;;34.22;26.01;96776.03;4993141;28;19980;-65
2023/05/27 10:28:04;;;;;;;;;;;;;;;35.33;26.47;96766.00;4996012;28;19991;-67
2023/05/27 10:30:44;;;;;;;;;;;;;;;36.04;24.96;96766.84;4996086;28;20028;-66
2023/05/27 10:33:13;;;;;;;;;;;;;;;34.31;25.77;96770.78;4997690;28;19944;-64
2023/05/27 10:35:41;;;;;;;;;;;;;;;36.17;25.14;96770.72;5000088;28;19957;-66
2023/05/27 10:38:16;;;;;;;;;;;;;;;35.11;25.97;96770.13;4995619;28;19964;-62
2023/05/27 10:40:45;;;;;;;;;;;;;;;36.17;24.57;96767.97;4993649;28;19972;-64
2023/05/27 10:43:16;;;;;;;;;;;;;;;36.19;25.05;96768.50;4991725;28;19975;-63
2023/05/27 10:45:45;;;;;;;;;;;;;;;34.90;25.67;96772.31;4996532;28;20294;-62
2023/05/27 10:48:18;;;;;;;;;;;;;;;35.25;25.20;96763.94;4995353;28;20475;-63
2023/05/27 10:50:52;;;;;;;;;;;;;;;36.05;24.87;96743.78;4994410;28;20368;-64
2023/05/27 10:53:21;;;;;;;;;;;;;;;35.01;25.16;96763.94;4998112;28;19968;-61
2023/05/27 10:55:50;;;;;;;;;;;;;;;35.47;25.53;96763.31;4999556;28;20028;-68
2023/05/27 10:58:18;;;;;;;;;;;;;;;33.32;25.82;96760.84;5002216;28;19965;-66
2023/05/27 11:00:48;;;;;;;;;;;;;;;36.08;24.04;96749.47;4997073;28;19957;-61
2023/05/27 11:03:17;;;;;;;;;;;;;;;35.98;23.67;96738.63;4994670;28;19976;-66
2023/05/27 11:05:45;;;;;;;;;;;;;;;34.26;25.05;96757.13;4994606;28;19965;-62
2023/05/27 11:08:13;;;;;;;;;;;;;;;34.76;24.40;96756.84;4992632;28;19957;-62
2023/05/27 11:10:42;;;;;;;;;;;;;;;35.10;23.58;96754.81;4998338;28;20428;-63
2023/05/27 11:13:10;;;;;;;;;;;;;;;36.91;22.70;96744.03;4996291;28;19968;-63
2023/05/27 11:15:40;;;;;;;;;;;;;;;35.72;24.24;96753.91;4995667;28;19957;-63
2023/05/27 11:18:09;;;;;;;;;;;;;;;35.94;22.93;96745.03;4994513;28;19968;-62
2023/05/27 11:20:38;;;;;;;;;;;;;;;35.09;23.80;96744.94;4991917;28;19922;-61
2023/05/27 11:23:06;;;;;;;;;;;;;;;35.57;22.46;96736.56;4996426;28;19965;-61
2023/05/27 11:25:43;;;;;;;;;;;;;;;36.30;23.20;96736.97;4998200;28;20102;-69
2023/05/27 11:28:15;;;;;;;;;;;;;;;35.11;24.90;96731.75;4992663;28;19964;-60
2023/05/27 11:30:43;;;;;;;;;;;;;;;35.56;23.78;96734.94;4994785;28;19968;-62
2023/05/27 11:33:14;;;;;;;;;;;;;;;36.97;22.79;96715.34;4996256;28;19965;-65
2023/05/27 11:36:06;;;;;;;;;;;;;;;34.69;23.90;96718.88;4994302;28;19964;-66
2023/05/27 11:38:46;;;;;;;;;;;;;;;35.65;23.57;96718.59;4994925;28;19968;-65
2023/05/27 11:41:18;;;;;;;;;;;;;;;34.76;23.99;96715.75;4990959;28;19971;-62
2023/05/27 11:43:49;;;;;;;;;;;;;;;35.10;23.27;96710.94;5001694;28;19972;-62
2023/05/27 11:46:17;;;;;;;;;;;;;;;35.94;23.14;96706.59;4992505;28;19961;-62
2023/05/27 11:48:47;;;;;;;;;;;;;;;35.25;23.90;96703.59;4995513;28;19956;-63
2023/05/27 11:51:15;;;;;;;;;;;;;;;35.59;23.20;96692.38;5002166;28;19964;-66
2023/05/27 11:53:45;;;;;;;;;;;;;;;34.68;23.55;96684.34;4988071;28;19966;-64
2023/05/27 11:56:13;;;;;;;;;;;;;;;34.34;23.94;96693.50;4994104;28;19964;-62
2023/05/27 11:58:41;;;;;;;;;;;;;;;35.38;23.70;96689.13;5000184;28;20061;-62
2023/05/27 12:01:10;;;;;;;;;;;;;;;34.79;24.19;96694.09;4983147;28;19921;-60
2023/05/27 12:03:38;;;;;;;;;;;;;;;36.24;22.80;96692.34;4977886;28;19960;-64
2023/05/27 12:06:08;;;;;;;;;;;;;;;36.08;22.05;96693.75;4983809;28;19953;-61
2023/05/27 12:08:36;;;;;;;;;;;;;;;34.90;23.23;96695.56;4978551;28;20420;-64
2023/05/27 12:11:04;;;;;;;;;;;;;;;37.04;22.38;96685.50;4993909;28;19961;-62
2023/05/27 12:13:32;;;;;;;;;;;;;;;36.07;22.72;96679.22;4996782;28;19987;-65
2023/05/27 12:16:02;;;;;;;;;;;;;;;35.35;22.63;96684.25;4998805;28;19960;-64
2023/05/27 12:18:31;;;;;;;;;;;;;;;34.49;23.24;96678.81;4993414;28;20056;-63
2023/05/27 12:20:59;;;;;;;;;;;;;;;34.55;22.90;96682.31;5000907;28;19965;-64
2023/05/27 12:23:28;;;;;;;;;;;;;;;35.34;23.48;96677.09;4992436;28;19965;-62
2023/05/27 12:25:56;;;;;;;;;;;;;;;34.86;23.18;96666.28;4989711;28;19968;-64
2023/05/27 12:28:25;;;;;;;;;;;;;;;36.30;22.39;96654.59;4998742;28;20486;-65
2023/05/27 12:30:54;;;;;;;;;;;;;;;36.60;22.07;96661.41;4995470;28;19963;-65
2023/05/27 12:33:22;;;;;;;;;;;;;;;35.95;23.44;96656.88;4993710;28;19983;-63
2023/05/27 12:35:50;;;;;;;;;;;;;;;35.94;23.17;96660.75;4998400;28;20530;-62
2023/05/27 12:38:18;;;;;;;;;;;;;;;35.63;23.10;96663.22;4997203;28;19965;-63
2023/05/27 12:40:48;;;;;;;;;;;;;;;35.71;22.93;96657.03;4992672;28;19968;-61
2023/05/27 12:43:16;;;;;;;;;;;;;;;36.47;22.30;96657.53;4994806;28;19961;-59
2023/05/27 12:45:44;;;;;;;;;;;;;;;35.79;22.05;96650.03;4993149;28;20428;-63
2023/05/27 12:48:12;;;;;;;;;;;;;;;34.99;23.18;96654.59;4994011;28;19949;-61
2023/05/27 12:50:41;;;;;;;;;;;;;;;36.02;22.35;96640.84;4991649;28;19961;-61
2023/05/27 12:53:09;;;;;;;;;;;;;;;35.81;22.96;96647.81;4996567;28;19960;-64
2023/05/27 12:55:38;;;;;;;;;;;;;;;35.94;22.45;96644.28;4991633;28;20432;-61